Time;durP1;ratioP1;P1;durP2;ratioP2;P2;SDS_P1;SDS_P2;PMS_P1;PMS_P2;Temp;Humidity;BMP_temperature;BMP_pressure;BME280_temperature;BME280_humidity;BME280_pressure;Samples;Min_cycle;Max_cycle;Signal;HPM_P1;HPM_P2
2021/03/28 00:02:07;;;;;;;3.13;1.20;;;18.30;64.50;;;;;;5048877;28;20391;-39
2021/03/28 00:04:58;;;;;;;1.80;1.42;;;18.30;64.40;;;;;;5038973;28;20044;-37
2021/03/28 00:07:27;;;;;;;2.97;1.65;;;18.30;64.80;;;;;;5045826;28;20063;-42
2021/03/28 03:17:22;;;;;;;1.10;1.00;;;17.50;66.80;;;;;;5089019;28;20325;-36
2021/03/28 03:20:19;;;;;;;1.05;0.95;;;17.80;66.40;;;;;;5087162;28;20036;-35
2021/03/28 03:23:13;;;;;;;0.98;0.70;;;17.80;66.30;;;;;;5084566;28;20032;-33
2021/03/28 03:25:59;;;;;;;1.45;1.00;;;17.80;65.90;;;;;;5087163;28;20319;-35
2021/03/28 03:28:50;;;;;;;0.85;0.70;;;17.80;66.00;;;;;;5087652;28;20020;-36
2021/03/28 03:31:42;;;;;;;2.45;0.80;;;17.80;65.90;;;;;;5113734;28;20028;-36
2021/03/28 03:34:40;;;;;;;0.95;0.95;;;17.90;65.80;;;;;;5086942;28;20021;-35
2021/03/28 03:37:43;;;;;;;2.95;1.20;;;17.80;65.60;;;;;;5064894;28;20421;-36
2021/03/28 03:40:30;;;;;;;1.30;1.20;;;17.80;65.60;;;;;;5085862;28;20036;-33
2021/03/28 03:43:04;;;;;;;1.10;1.00;;;17.80;65.60;;;;;;5086510;28;20028;-34
2021/03/28 03:45:35;;;;;;;;;;;17.80;65.50;;;;;;5087565;28;20124;-35
2021/03/28 03:48:10;;;;;;;1.52;0.82;;;17.80;65.40;;;;;;5087584;28;19996;-37
2021/03/28 03:50:41;;;;;;;0.73;0.70;;;17.80;65.50;;;;;;5087384;28;20063;-36
2021/03/28 03:53:34;;;;;;;1.38;0.70;;;17.80;65.40;;;;;;5084359;28;20066;-36
2021/03/28 03:56:26;;;;;;;0.90;0.80;;;17.80;65.30;;;;;;5036922;28;20124;-36
2021/03/28 03:59:16;;;;;;;2.08;0.90;;;17.80;65.20;;;;;;5047400;28;20514;-36
2021/03/28 04:01:41;;;;;;;1.25;0.70;;;17.80;65.20;;;;;;5032303;28;20051;-35
2021/03/28 04:04:27;;;;;;;0.90;0.60;;;17.80;65.20;;;;;;5063599;28;20040;-36
2021/03/28 04:07:15;;;;;;;1.33;0.98;;;17.80;65.30;;;;;;5060885;28;20460;-37
2021/03/28 04:10:04;;;;;;;0.98;0.85;;;17.80;65.10;;;;;;5049923;28;20763;-36
2021/03/28 04:12:42;;;;;;;0.95;0.68;;;17.80;65.10;;;;;;5065069;28;20052;-36
2021/03/28 04:15:17;;;;;;;1.08;0.90;;;17.80;65.10;;;;;;5058576;28;20052;-36
2021/03/28 04:18:03;;;;;;;0.60;0.60;;;17.80;65.00;;;;;;5034040;28;20608;-35
2021/03/28 04:20:53;;;;;;;1.02;0.77;;;17.90;65.00;;;;;;5030309;28;20041;-35
2021/03/28 04:23:37;;;;;;;1.13;0.73;;;17.80;64.90;;;;;;5032830;28;20441;-34
2021/03/28 04:26:29;;;;;;;0.77;0.77;;;17.80;64.80;;;;;;5015230;28;20057;-36
2021/03/28 04:29:07;;;;;;;0.98;0.60;;;17.80;64.80;;;;;;5046946;28;20065;-35
2021/03/28 04:32:15;;;;;;;1.00;0.73;;;17.90;65.00;;;;;;5016515;28;20473;-37
2021/03/28 04:34:43;;;;;;;0.70;0.60;;;17.80;64.80;;;;;;5075057;28;20020;-36
2021/03/28 04:37:31;;;;;;;0.90;0.70;;;17.90;64.80;;;;;;5073247;28;20518;-34
2021/03/28 04:40:17;;;;;;;0.93;0.65;;;17.90;64.70;;;;;;5071142;28;20040;-37
2021/03/28 04:42:52;;;;;;;0.60;0.60;;;17.90;64.70;;;;;;5069859;28;20040;-36
2021/03/28 04:45:42;;;;;;;1.27;0.70;;;17.90;64.50;;;;;;5073217;28;20127;-36
2021/03/28 04:48:26;;;;;;;0.77;0.70;;;18.00;64.20;;;;;;5072170;28;20464;-37
2021/03/28 04:51:01;;;;;;;0.45;0.40;;;18.00;64.40;;;;;;5073250;28;20033;-35
2021/03/28 04:53:33;;;;;;;1.70;0.68;;;18.00;64.30;;;;;;5072641;28;20032;-36
2021/03/28 04:56:20;;;;;;;0.90;0.70;;;18.00;64.00;;;;;;5072234;28;20029;-36
2021/03/28 04:59:10;;;;;;;0.77;0.60;;;18.00;64.00;;;;;;5071634;28;20078;-36
2021/03/28 05:02:09;;;;;;;0.63;0.63;;;18.00;63.90;;;;;;5059527;28;20051;-36
2021/03/28 05:05:03;;;;;;;0.95;0.70;;;18.00;64.00;;;;;;5058384;28;20189;-37
2021/03/28 05:07:42;;;;;;;0.55;0.55;;;18.00;63.90;;;;;;5058865;28;20035;-36
2021/03/28 05:10:26;;;;;;;0.93;0.55;;;18.10;63.80;;;;;;5071350;28;20043;-37
2021/03/28 05:13:15;;;;;;;0.80;0.68;;;18.10;63.70;;;;;;5072095;28;20046;-37
2021/03/28 05:16:23;;;;;;;1.10;0.57;;;18.10;63.60;;;;;;5072849;28;20056;-35
2021/03/28 05:19:10;;;;;;;1.10;0.80;;;18.10;63.60;;;;;;5027125;28;20073;-34
2021/03/28 05:21:45;;;;;;;1.10;0.70;;;18.10;63.70;;;;;;5025396;28;20029;-34
2021/03/28 05:24:47;;;;;;;0.68;0.68;;;18.10;63.70;;;;;;5027041;28;20053;-35
2021/03/28 05:27:34;;;;;;;1.40;0.60;;;18.00;63.80;;;;;;5027447;28;20111;-35
2021/03/28 05:30:37;;;;;;;0.93;0.50;;;18.00;63.80;;;;;;5025715;28;20037;-37
2021/03/28 05:33:09;;;;;;;1.02;0.65;;;18.00;63.80;;;;;;5025699;28;20044;-36
2021/03/28 05:36:07;;;;;;;0.70;0.70;;;18.00;63.60;;;;;;5010047;28;20067;-38
2021/03/28 05:38:53;;;;;;;0.50;0.50;;;18.00;63.60;;;;;;5009124;28;20560;-34
2021/03/28 05:41:40;;;;;;;0.93;0.65;;;17.90;64.80;;;;;;5029335;28;20029;-35
2021/03/28 05:44:10;;;;;;;0.70;0.70;;;17.90;63.80;;;;;;5025477;28;20057;-33
2021/03/28 05:46:41;;;;;;;0.45;0.45;;;18.00;63.80;;;;;;5009862;28;20067;-36
2021/03/28 05:49:23;;;;;;;1.10;0.63;;;18.00;63.70;;;;;;5044988;28;20051;-35
2021/03/28 05:52:08;;;;;;;0.82;0.60;;;18.00;63.80;;;;;;5045903;28;20044;-33
2021/03/28 05:54:39;;;;;;;0.63;0.52;;;17.90;63.90;;;;;;5026022;28;20025;-37
2021/03/28 05:57:08;;;;;;;0.70;0.60;;;17.90;63.90;;;;;;5071616;28;20035;-35
2021/03/28 05:59:45;;;;;;;0.85;0.50;;;18.00;63.90;;;;;;5070603;28;20056;-37
2021/03/28 06:02:20;;;;;;;0.73;0.60;;;18.00;63.80;;;;;;5067159;28;20547;-39
2021/03/28 06:05:06;;;;;;;0.47;0.40;;;18.00;63.60;;;;;;5067965;28;20086;-40
2021/03/28 06:08:13;;;;;;;0.50;0.50;;;18.00;63.60;;;;;;5063125;28;20020;-35
2021/03/28 06:11:11;;;;;;;0.80;0.60;;;18.00;63.50;;;;;;5064677;28;20028;-37
2021/03/28 06:14:05;;;;;;;0.40;0.40;;;18.00;63.50;;;;;;5065747;28;20063;-35
2021/03/28 06:17:08;;;;;;;0.52;0.43;;;17.90;63.80;;;;;;5041006;28;20056;-36
2021/03/28 06:19:48;;;;;;;0.60;0.60;;;17.90;63.90;;;;;;5042107;28;20120;-36
2021/03/28 06:22:42;;;;;;;0.73;0.57;;;17.90;63.90;;;;;;5037789;28;20025;-36
2021/03/28 06:25:26;;;;;;;0.60;0.52;;;17.90;63.70;;;;;;5044417;28;20045;-37
2021/03/28 06:28:23;;;;;;;0.52;0.40;;;17.90;63.70;;;;;;5055115;28;20557;-37
2021/03/28 06:31:01;;;;;;;0.60;0.40;;;17.90;63.60;;;;;;5031703;28;20035;-37
2021/03/28 06:33:44;;;;;;;0.50;0.50;;;18.00;63.60;;;;;;5045915;28;20563;-37
2021/03/28 06:36:31;;;;;;;0.50;0.50;;;17.90;63.50;;;;;;5035998;28;20042;-36
2021/03/28 06:39:17;;;;;;;0.80;0.50;;;17.90;63.40;;;;;;5035214;28;20422;-38
2021/03/28 06:41:47;;;;;;;0.88;0.73;;;17.90;63.40;;;;;;5041987;28;20112;-36
2021/03/28 06:44:43;;;;;;;0.60;0.40;;;17.90;63.50;;;;;;5017169;28;20041;-36
2021/03/28 06:47:51;;;;;;;0.70;0.50;;;18.00;63.40;;;;;;5034397;28;20557;-36
2021/03/28 06:50:22;;;;;;;0.55;0.47;;;17.90;63.30;;;;;;5035177;28;20077;-35
2021/03/28 06:53:11;;;;;;;0.47;0.43;;;17.90;63.20;;;;;;5045066;28;20040;-37
2021/03/28 06:55:43;;;;;;;0.52;0.50;;;17.90;63.20;;;;;;5056835;28;20037;-35
2021/03/28 06:58:15;;;;;;;3.40;0.63;;;17.90;63.30;;;;;;5065778;28;20729;-36
2021/03/28 07:01:11;;;;;;;0.50;0.50;;;17.80;63.60;;;;;;5067547;28;20115;-37
2021/03/28 07:04:03;;;;;;;0.73;0.50;;;17.80;63.40;;;;;;5067434;28;20051;-35
2021/03/28 07:06:53;;;;;;;0.80;0.65;;;17.90;63.40;;;;;;5067948;28;20044;-36
2021/03/28 07:09:40;;;;;;;0.90;0.80;;;17.90;63.40;;;;;;5070400;28;20036;-36
2021/03/28 07:12:25;;;;;;;0.30;0.30;;;17.90;63.40;;;;;;5069086;28;20066;-36
2021/03/28 07:14:59;;;;;;;0.70;0.60;;;17.80;63.60;;;;;;5069339;28;20078;-36
2021/03/28 07:17:43;;;;;;;;;;;17.80;63.40;;;;;;5070800;28;20063;-35
2021/03/28 07:20:23;;;;;;;1.05;0.65;;;17.90;63.40;;;;;;5066359;28;20008;-37
2021/03/28 07:22:59;;;;;;;0.57;0.57;;;17.80;63.70;;;;;;5067503;28;20472;-37
2021/03/28 07:25:26;;;;;;;0.60;0.60;;;17.80;63.70;;;;;;5074776;28;20036;-36
2021/03/28 07:28:20;;;;;;;0.55;0.50;;;17.70;63.80;;;;;;5068342;28;20497;-36
2021/03/28 07:31:23;;;;;;;0.60;0.60;;;17.70;63.80;;;;;;5065185;28;20104;-36
2021/03/28 07:34:26;;;;;;;0.80;0.50;;;17.70;63.80;;;;;;5066491;28;20032;-37
2021/03/28 07:37:13;;;;;;;0.82;0.57;;;17.70;63.80;;;;;;5066432;28;20536;-36
2021/03/28 07:40:09;;;;;;;0.60;0.60;;;17.70;63.80;;;;;;5067970;28;20801;-37
2021/03/28 07:43:05;;;;;;;0.73;0.73;;;17.80;63.60;;;;;;5060992;28;20039;-43
2021/03/28 07:46:03;;;;;;;1.35;0.52;;;17.80;63.60;;;;;;5067162;28;20181;-36
2021/03/28 07:48:35;;;;;;;0.32;0.32;;;17.80;63.50;;;;;;5064645;28;20457;-38
2021/03/28 07:51:33;;;;;;;2.35;0.57;;;17.80;63.50;;;;;;5065477;28;20647;-37
2021/03/28 07:54:38;;;;;;;0.70;0.63;;;17.90;63.30;;;;;;5063597;28;20096;-38
2021/03/28 07:57:10;;;;;;;0.50;0.50;;;18.00;62.80;;;;;;5068435;28;20033;-35
2021/03/28 07:59:45;;;;;;;0.60;0.60;;;18.10;62.50;;;;;;5069434;28;20025;-35
2021/03/28 08:02:29;;;;;;;2.15;0.60;;;18.30;62.00;;;;;;5068223;28;20053;-37
2021/03/28 08:05:07;;;;;;;1.35;0.65;;;18.40;61.40;;;;;;5071113;28;20064;-37
2021/03/28 08:07:50;;;;;;;0.70;0.50;;;18.60;60.90;;;;;;5072519;28;20023;-42
2021/03/28 08:10:36;;;;;;;0.52;0.50;;;18.90;59.70;;;;;;5073210;28;20046;-34
2021/03/28 08:13:39;;;;;;;0.30;0.30;;;19.10;59.40;;;;;;5068024;28;20056;-39
2021/03/28 08:16:21;;;;;;;0.95;0.60;;;19.10;59.40;;;;;;5069450;28;20643;-38
2021/03/28 08:19:15;;;;;;;1.05;0.68;;;18.80;59.90;;;;;;5063299;28;20028;-36
2021/03/28 08:21:44;;;;;;;1.33;0.43;;;18.60;60.70;;;;;;5073561;28;20478;-36
2021/03/28 08:24:34;;;;;;;0.50;0.50;;;18.40;61.40;;;;;;5068561;28;20039;-38
2021/03/28 08:27:25;;;;;;;0.43;0.43;;;18.20;61.60;;;;;;5069461;28;20541;-35
2021/03/28 08:30:30;;;;;;;0.80;0.50;;;18.10;61.90;;;;;;5069326;28;20082;-36
2021/03/28 08:33:16;;;;;;;1.25;0.60;;;18.00;62.40;;;;;;5071031;28;20536;-36
2021/03/28 08:36:18;;;;;;;0.30;0.30;;;17.90;62.60;;;;;;5072358;28;20051;-37
2021/03/28 08:38:59;;;;;;;0.50;0.50;;;17.90;62.90;;;;;;4971635;28;20125;-36
2021/03/28 08:42:02;;;;;;;0.50;0.50;;;17.90;62.40;;;;;;4984483;28;20042;-35
2021/03/28 08:44:42;;;;;;;1.15;0.55;;;17.90;62.50;;;;;;4991939;28;20112;-37
2021/03/28 08:47:16;;;;;;;0.50;0.50;;;17.90;62.40;;;;;;4990831;28;20118;-36
2021/03/28 08:49:58;;;;;;;0.60;0.32;;;17.90;62.50;;;;;;4984286;28;20034;-38
2021/03/28 08:52:54;;;;;;;0.47;0.40;;;17.80;62.30;;;;;;4983266;28;20488;-37
2021/03/28 08:55:56;;;;;;;0.70;0.70;;;18.00;62.40;;;;;;4982779;28;20076;-36
2021/03/28 08:58:40;;;;;;;1.40;0.45;;;18.00;61.70;;;;;;4986395;28;20046;-35
2021/03/28 09:01:34;;;;;;;0.60;0.60;;;18.00;61.70;;;;;;4970631;28;20455;-36
2021/03/28 09:04:11;;;;;;;0.57;0.50;;;18.00;61.50;;;;;;4699540;28;10000678;-35
2021/03/28 09:06:50;;;;;;;0.50;0.50;;;18.00;61.90;;;;;;4975326;28;20252;-36
2021/03/28 09:09:49;;;;;;;1.38;0.60;;;18.10;62.00;;;;;;4977644;28;20038;-28
2021/03/28 09:12:40;;;;;;;0.80;0.50;;;18.10;61.70;;;;;;4980320;28;20104;-35
2021/03/28 09:15:28;;;;;;;1.02;0.45;;;18.20;62.00;;;;;;5046233;28;20121;-36
2021/03/28 09:18:21;;;;;;;1.65;0.60;;;18.20;61.80;;;;;;5060603;28;20058;-35
2021/03/28 09:21:02;;;;;;;0.63;0.60;;;18.30;61.90;;;;;;5057057;28;20043;-35
2021/03/28 09:23:55;;;;;;;0.60;0.50;;;18.30;61.70;;;;;;5059467;28;20501;-36
2021/03/28 09:26:50;;;;;;;0.45;0.43;;;18.40;61.70;;;;;;5059624;28;20059;-29
2021/03/28 09:29:15;;;;;;;;;;;18.40;61.40;;;;;;5042106;28;20045;-41
2021/03/28 09:31:58;;;;;;;1.92;0.43;;;18.50;61.40;;;;;;5060805;28;19916;-41
2021/03/28 09:34:39;;;;;;;0.50;0.50;;;18.60;61.20;;;;;;5059881;28;20610;-35
2021/03/28 09:37:08;;;;;;;0.65;0.57;;;18.60;61.90;;;;;;5058813;28;20032;-37
2021/03/28 09:39:52;;;;;;;0.75;0.57;;;18.60;61.20;;;;;;5058576;28;20032;-40
2021/03/28 09:42:37;;;;;;;0.90;0.57;;;18.60;61.10;;;;;;5060477;28;20031;-32
2021/03/28 09:45:26;;;;;;;0.35;0.35;;;18.60;60.90;;;;;;5059276;28;20072;-36
2021/03/28 09:48:14;;;;;;;0.45;0.38;;;18.70;61.20;;;;;;5059703;28;20047;-40
2021/03/28 09:51:06;;;;;;;0.40;0.40;;;18.70;61.50;;;;;;5059024;28;20043;-37
2021/03/28 09:53:50;;;;;;;1.13;0.80;;;18.80;61.70;;;;;;4987772;28;20416;-35
2021/03/28 09:56:43;;;;;;;0.80;0.65;;;18.90;62.60;;;;;;4987693;28;20068;-36
2021/03/28 09:59:25;;;;;;;1.02;0.63;;;19.00;60.80;;;;;;4980882;28;20049;-37
2021/03/28 10:02:12;;;;;;;2.10;1.00;;;19.00;60.80;;;;;;5003734;28;20035;-41
2021/03/28 10:05:08;;;;;;;3.33;1.40;;;19.10;61.30;;;;;;4988760;28;21975;-43
2021/03/28 10:07:43;;;;;;;1.70;1.48;;;19.00;61.30;;;;;;4974610;28;20030;-43
2021/03/28 10:10:09;;;;;;;3.70;1.80;;;19.10;61.00;;;;;;4978499;28;20173;-43
2021/03/28 10:12:56;;;;;;;6.07;1.75;;;19.20;61.00;;;;;;4990686;28;20493;-42
2021/03/28 10:15:25;;;;;;;4.68;1.67;;;19.20;60.70;;;;;;4973808;28;20123;-43
2021/03/28 10:18:18;;;;;;;2.53;1.30;;;19.20;60.70;;;;;;4983500;28;20423;-45
2021/03/28 10:21:19;;;;;;;9.45;1.13;;;19.20;60.40;;;;;;4999917;28;20030;-44
2021/03/28 10:24:21;;;;;;;3.03;1.70;;;19.30;61.40;;;;;;4987603;28;20042;-43
2021/03/28 10:27:07;;;;;;;2.28;1.35;;;19.30;61.20;;;;;;4987134;28;20563;-44
2021/03/28 10:29:56;;;;;;;3.20;1.40;;;19.20;61.40;;;;;;5000286;28;20071;-43
2021/03/28 10:32:58;;;;;;;5.90;1.40;;;19.20;61.50;;;;;;5085563;28;20402;-43
2021/03/28 10:35:45;;;;;;;4.32;1.60;;;19.20;61.60;;;;;;5069569;28;20074;-44
2021/03/28 10:38:30;;;;;;;4.45;1.98;;;19.20;61.90;;;;;;5099803;28;20032;-43
2021/03/28 10:41:24;;;;;;;1.63;0.80;;;19.30;61.70;;;;;;5064519;28;20028;-43
2021/03/28 10:44:09;;;;;;;1.80;0.80;;;19.30;61.70;;;;;;5027227;28;20124;-43
2021/03/28 10:47:05;;;;;;;2.55;1.33;;;19.40;61.20;;;;;;5015221;28;20033;-43
2021/03/28 10:50:08;;;;;;;2.90;1.17;;;19.50;61.20;;;;;;5030522;28;20076;-44
2021/03/28 10:53:10;;;;;;;2.33;1.13;;;19.40;60.90;;;;;;5027163;28;20033;-44
2021/03/28 10:55:54;;;;;;;4.57;1.30;;;19.40;61.10;;;;;;5029421;28;20574;-43
2021/03/28 10:58:38;;;;;;;4.60;1.50;;;19.50;61.00;;;;;;5028385;28;20041;-42
2021/03/28 11:01:22;;;;;;;3.15;1.00;;;19.50;61.20;;;;;;5041331;28;20044;-43
2021/03/28 11:03:59;;;;;;;3.17;1.47;;;19.50;60.70;;;;;;5031425;28;20064;-43
2021/03/28 11:07:06;;;;;;;2.83;1.13;;;19.60;60.70;;;;;;5029547;28;20287;-42
2021/03/28 11:10:09;;;;;;;1.85;1.08;;;19.70;60.70;;;;;;5021072;28;20032;-43
2021/03/28 11:12:43;;;;;;;3.42;1.45;;;19.70;60.80;;;;;;5034740;28;20560;-42
2021/03/28 11:15:15;;;;;;;3.45;1.10;;;19.80;60.70;;;;;;5027552;28;20049;-44
2021/03/28 11:18:08;;;;;;;2.72;1.27;;;19.80;60.60;;;;;;5031539;28;21619;-44
2021/03/28 11:20:49;;;;;;;4.47;1.42;;;19.80;60.90;;;;;;5043909;28;20045;-39
2021/03/28 11:23:39;;;;;;;2.95;1.33;;;19.80;60.90;;;;;;5095570;28;20049;-44
2021/03/28 11:26:22;;;;;;;4.30;1.70;;;19.90;60.80;;;;;;5067966;28;20794;-43
2021/03/28 11:29:15;;;;;;;3.08;1.00;;;20.00;60.90;;;;;;5070175;28;20056;-42
2021/03/28 11:32:09;;;;;;;2.83;1.08;;;19.90;60.90;;;;;;5057703;28;20041;-44
2021/03/28 11:34:52;;;;;;;2.75;1.30;;;20.00;61.20;;;;;;5056258;28;20035;-44
2021/03/28 11:37:42;;;;;;;1.83;1.02;;;19.90;61.10;;;;;;5066186;28;20036;-43
2021/03/28 11:40:07;;;;;;;3.53;1.33;;;19.90;61.50;;;;;;5070090;28;20088;-44
2021/03/28 11:42:33;;;;;;;2.85;1.48;;;20.00;61.70;;;;;;5071229;28;20024;-44
2021/03/28 11:44:59;;;;;;;3.47;0.88;;;20.00;61.50;;;;;;5053571;28;20069;-43
2021/03/28 11:47:35;;;;;;;2.80;1.25;;;20.00;61.60;;;;;;4721897;27;10000658;-44
2021/03/28 11:50:10;;;;;;;4.85;1.17;;;20.10;62.10;;;;;;5062270;28;20840;-45
2021/03/28 11:53:08;;;;;;;4.65;1.00;;;20.00;62.40;;;;;;5057740;28;20648;-44
2021/03/28 11:55:49;;;;;;;2.50;1.25;;;20.10;62.30;;;;;;5044658;28;20557;-46
2021/03/28 11:58:18;;;;;;;3.08;0.95;;;20.10;62.20;;;;;;5057402;28;20025;-43
2021/03/28 12:00:50;;;;;;;2.92;1.05;;;20.20;62.10;;;;;;5059808;28;20068;-44
2021/03/28 12:03:24;;;;;;;4.22;1.15;;;20.20;62.20;;;;;;5060430;28;20036;-43
2021/03/28 12:06:04;;;;;;;1.77;0.90;;;20.20;62.30;;;;;;5058758;28;20045;-40
2021/03/28 12:08:45;;;;;;;5.03;1.15;;;20.20;62.00;;;;;;5043020;28;20432;-42
2021/03/28 12:11:30;;;;;;;4.35;1.00;;;20.20;62.00;;;;;;5059004;28;20031;-37
2021/03/28 12:13:56;;;;;;;1.73;0.90;;;20.30;61.70;;;;;;5060962;28;20041;-42
2021/03/28 12:16:22;;;;;;;2.45;1.08;;;20.30;61.70;;;;;;5058018;28;20056;-43
2021/03/28 12:18:53;;;;;;;2.35;0.95;;;20.30;61.80;;;;;;5041542;28;20039;-32
2021/03/28 12:21:25;;;;;;;1.23;0.80;;;20.30;61.60;;;;;;5075465;28;20194;-47
2021/03/28 12:23:51;;;;;;;1.50;0.90;;;20.30;61.60;;;;;;5058506;28;20678;-45
2021/03/28 12:26:41;;;;;;;1.33;1.10;;;20.30;61.40;;;;;;5060243;28;20066;-40
2021/03/28 12:29:17;;;;;;;1.20;0.95;;;20.30;61.30;;;;;;5047325;28;20036;-46
2021/03/28 12:31:47;;;;;;;2.33;1.02;;;20.30;61.50;;;;;;5058867;28;20469;-45
2021/03/28 12:34:32;;;;;;;1.50;1.00;;;20.30;61.20;;;;;;5059514;28;20040;-46
2021/03/28 12:37:10;;;;;;;1.75;0.82;;;20.40;61.00;;;;;;5058567;28;20762;-45
2021/03/28 12:39:44;;;;;;;1.80;0.80;;;20.30;61.00;;;;;;5059233;28;20021;-43
2021/03/28 12:42:16;;;;;;;;;;;20.30;60.90;;;;;;5060582;28;20037;-44
2021/03/28 12:44:42;;;;;;;1.85;0.95;;;20.30;60.90;;;;;;5059673;28;20032;-44
2021/03/28 12:47:17;;;;;;;2.90;1.30;;;20.30;61.10;;;;;;5057029;28;20126;-43
2021/03/28 12:49:59;;;;;;;3.35;1.20;;;20.30;61.10;;;;;;5060204;28;20129;-44
2021/03/28 12:52:42;;;;;;;1.45;1.00;;;20.30;60.90;;;;;;5040741;28;20032;-44
2021/03/28 12:55:09;;;;;;;1.23;0.80;;;20.40;60.90;;;;;;5057907;28;20044;-44
2021/03/28 12:57:37;;;;;;;1.05;0.75;;;20.40;60.70;;;;;;5056542;28;20024;-43
2021/03/28 13:00:26;;;;;;;4.10;1.00;;;20.40;60.70;;;;;;5051138;28;20040;-43
2021/03/28 13:02:52;;;;;;;0.93;0.70;;;20.40;60.40;;;;;;5058488;28;20489;-43
2021/03/28 13:05:21;;;;;;;1.98;0.77;;;20.40;60.50;;;;;;5056791;28;20037;-43
2021/03/28 13:07:50;;;;;;;1.38;0.90;;;20.40;60.30;;;;;;5060856;28;20848;-45
2021/03/28 13:10:21;;;;;;;3.10;1.10;;;20.40;60.30;;;;;;5060661;28;20532;-42
2021/03/28 13:13:02;;;;;;;3.47;1.08;;;20.40;60.70;;;;;;5060702;28;20035;-41
2021/03/28 13:15:43;;;;;;;4.93;1.20;;;20.40;60.60;;;;;;5059528;28;20127;-49
2021/03/28 13:18:15;;;;;;;8.75;1.38;;;20.40;60.70;;;;;;5059163;28;20044;-42
2021/03/28 13:20:54;;;;;;;1.42;0.90;;;20.40;60.80;;;;;;5060568;28;20043;-43
2021/03/28 13:23:24;;;;;;;4.10;0.95;;;20.50;60.40;;;;;;5060882;28;20044;-42
2021/03/28 13:26:25;;;;;;;1.60;1.10;;;20.50;60.20;;;;;;5058632;28;20049;-43
2021/03/28 13:29:18;;;;;;;1.45;0.90;;;20.50;60.10;;;;;;5059911;28;20049;-43
2021/03/28 13:31:53;;;;;;;1.17;0.82;;;20.50;59.90;;;;;;5060172;28;20072;-44
2021/03/28 13:34:21;;;;;;;1.25;0.70;;;20.50;59.80;;;;;;5050691;28;20110;-44
2021/03/28 13:37:01;;;;;;;2.38;1.02;;;20.50;59.70;;;;;;5050885;28;20040;-43
2021/03/28 13:39:27;;;;;;;1.80;0.60;;;20.50;59.70;;;;;;5052478;28;20463;-43
2021/03/28 13:41:56;;;;;;;1.48;0.98;;;20.50;59.80;;;;;;5033281;28;20036;-43
2021/03/28 13:44:57;;;;;;;1.60;0.98;;;20.40;59.80;;;;;;5051200;28;20596;-43
2021/03/28 13:47:38;;;;;;;1.90;1.00;;;20.50;59.60;;;;;;5049192;28;20141;-42
2021/03/28 13:50:41;;;;;;;2.85;0.90;;;20.50;59.40;;;;;;5050544;28;20091;-43
2021/03/28 13:53:23;;;;;;;1.63;0.90;;;20.50;59.40;;;;;;5051812;28;20067;-43
2021/03/28 13:56:16;;;;;;;1.35;0.80;;;20.50;59.40;;;;;;5041502;28;20090;-36
2021/03/28 13:58:42;;;;;;;1.05;0.90;;;20.50;59.40;;;;;;5047822;28;20049;-36
2021/03/28 14:01:23;;;;;;;1.60;0.70;;;20.50;59.40;;;;;;5049964;28;20052;-36
2021/03/28 14:03:50;;;;;;;1.33;1.00;;;20.50;59.30;;;;;;5041545;28;20109;-36
2021/03/28 14:06:24;;;;;;;3.05;1.10;;;20.50;59.40;;;;;;5049701;28;20819;-42
2021/03/28 14:08:52;;;;;;;3.03;0.90;;;20.50;59.40;;;;;;5049022;28;20021;-36
2021/03/28 14:11:26;;;;;;;1.20;0.70;;;20.50;59.40;;;;;;5048745;28;20029;-47
2021/03/28 14:14:02;;;;;;;;;;;20.40;59.40;;;;;;5049720;28;21351;-36
2021/03/28 14:16:29;;;;;;;1.50;0.73;;;20.40;59.50;;;;;;5048613;28;19924;-38
2021/03/28 14:18:57;;;;;;;2.38;0.95;;;20.40;59.50;;;;;;5031403;28;20055;-34
2021/03/28 14:21:26;;;;;;;2.97;0.70;;;20.40;59.30;;;;;;5049574;28;20085;-35
2021/03/28 14:23:55;;;;;;;1.33;1.05;;;20.40;59.60;;;;;;5049936;28;20127;-37
2021/03/28 14:26:28;;;;;;;1.88;0.60;;;20.30;59.50;;;;;;5049277;28;20060;-37
2021/03/28 14:28:53;;;;;;;2.53;0.88;;;20.30;59.60;;;;;;5032630;28;20117;-42
2021/03/28 14:31:28;;;;;;;1.63;1.00;;;20.30;59.50;;;;;;5048114;28;20425;-35
2021/03/28 14:34:03;;;;;;;1.30;0.82;;;20.30;59.60;;;;;;5034528;28;20063;-42
2021/03/28 14:36:50;;;;;;;1.50;0.80;;;20.30;59.60;;;;;;5050457;28;20418;-34
2021/03/28 14:39:31;;;;;;;1.42;0.93;;;20.30;59.40;;;;;;5050828;28;20093;-36
2021/03/28 14:42:01;;;;;;;1.23;0.75;;;20.20;59.80;;;;;;5031562;28;20464;-43
2021/03/28 14:44:42;;;;;;;1.80;0.82;;;20.20;59.70;;;;;;5049249;28;21459;-32
2021/03/28 14:47:43;;;;;;;1.40;0.80;;;20.20;59.80;;;;;;5048145;28;20083;-34
2021/03/28 14:50:53;;;;;;;0.93;0.75;;;20.20;59.80;;;;;;4976575;28;20041;-33
2021/03/28 14:53:46;;;;;;;1.50;0.60;;;20.20;60.00;;;;;;4900504;29;20101;-40
2021/03/28 14:56:50;;;;;;;1.20;0.50;;;20.20;59.70;;;;;;4900349;29;20059;-36
2021/03/28 14:59:24;;;;;;;1.48;0.77;;;20.20;59.60;;;;;;4886273;29;20138;-36
2021/03/28 15:01:50;;;;;;;1.00;0.50;;;20.20;59.70;;;;;;4898574;29;20067;-37
2021/03/28 15:04:37;;;;;;;1.17;0.70;;;20.30;59.60;;;;;;4894991;29;20051;-37
2021/03/28 15:07:15;;;;;;;1.33;0.88;;;20.20;59.40;;;;;;4882030;29;20079;-37
2021/03/28 15:09:46;;;;;;;1.92;0.73;;;20.10;59.90;;;;;;4900255;29;20140;-42
2021/03/28 15:12:19;;;;;;;1.45;0.50;;;20.20;60.00;;;;;;4868106;29;20063;-40
2021/03/28 15:15:18;;;;;;;3.45;0.70;;;20.20;59.90;;;;;;4882246;29;20155;-41
2021/03/28 15:18:19;;;;;;;0.73;0.40;;;20.20;59.70;;;;;;4893187;29;20056;-33
2021/03/28 15:20:53;;;;;;;0.95;0.52;;;20.30;59.60;;;;;;4897278;29;20044;-35
2021/03/28 15:23:32;;;;;;;0.43;0.40;;;20.30;59.80;;;;;;4882954;29;20048;-35
2021/03/28 15:26:15;;;;;;;3.13;0.50;;;20.30;59.80;;;;;;4899677;28;20067;-45
2021/03/28 15:28:43;;;;;;;2.25;0.75;;;20.40;59.70;;;;;;4963038;28;20046;-37
2021/03/28 15:31:16;;;;;;;2.38;0.60;;;20.40;59.80;;;;;;5035453;28;23183;-41
2021/03/28 15:33:50;;;;;;;2.28;0.60;;;20.40;59.70;;;;;;5045305;28;20045;-35
2021/03/28 15:36:27;;;;;;;1.85;1.13;;;20.40;59.80;;;;;;5046463;28;20033;-32
2021/03/28 15:39:17;;;;;;;1.17;0.73;;;20.40;59.90;;;;;;5043490;28;20037;-32
2021/03/28 15:42:12;;;;;;;1.02;0.63;;;20.40;60.00;;;;;;4697579;28;10000408;-37
2021/03/28 15:45:09;;;;;;;1.17;0.75;;;20.50;59.80;;;;;;5033171;28;20136;-44
2021/03/28 15:48:05;;;;;;;2.13;0.60;;;20.50;59.80;;;;;;5044584;28;20580;-44
2021/03/28 15:50:58;;;;;;;1.50;0.80;;;20.50;60.00;;;;;;5035626;28;20045;-36
2021/03/28 15:53:48;;;;;;;2.53;0.80;;;20.50;59.90;;;;;;5045349;28;20064;-36
2021/03/28 15:56:23;;;;;;;1.88;0.80;;;20.50;59.50;;;;;;5046815;28;20044;-42
2021/03/28 15:59:12;;;;;;;1.35;0.80;;;20.50;59.20;;;;;;5043197;28;20037;-37
2021/03/28 16:01:56;;;;;;;0.77;0.50;;;20.50;58.70;;;;;;5044667;28;20081;-36
2021/03/28 16:04:33;;;;;;;0.73;0.50;;;20.50;58.30;;;;;;5045693;28;20044;-37
2021/03/28 16:07:40;;;;;;;0.70;0.50;;;20.60;57.90;;;;;;5042601;28;20040;-42
2021/03/28 16:10:21;;;;;;;1.48;0.60;;;20.60;57.90;;;;;;5035734;28;20171;-38
2021/03/28 16:13:03;;;;;;;4.10;0.70;;;20.70;57.90;;;;;;5050632;28;20040;-35
2021/03/28 16:15:49;;;;;;;1.75;0.70;;;20.60;57.50;;;;;;5050853;28;20053;-38
2021/03/28 16:18:18;;;;;;;1.33;0.57;;;20.60;57.60;;;;;;5049981;28;20036;-37
2021/03/28 16:21:08;;;;;;;0.60;0.60;;;20.60;57.20;;;;;;5050533;28;20037;-48
2021/03/28 16:24:02;;;;;;;0.95;0.70;;;20.60;57.30;;;;;;5051479;28;20029;-40
2021/03/28 16:26:43;;;;;;;1.98;0.80;;;20.60;57.30;;;;;;5049741;28;20732;-33
2021/03/28 16:29:31;;;;;;;3.45;0.63;;;20.50;57.70;;;;;;5040836;28;20038;-38
2021/03/28 16:32:06;;;;;;;1.10;0.75;;;20.40;57.70;;;;;;5063702;28;20038;-38
2021/03/28 16:34:59;;;;;;;3.33;0.88;;;20.50;57.30;;;;;;5062659;28;20028;-44
2021/03/28 16:37:41;;;;;;;3.08;1.05;;;20.60;57.70;;;;;;5067845;28;20082;-43
2021/03/28 16:40:30;;;;;;;1.35;0.80;;;20.60;57.70;;;;;;5066904;28;20071;-42
2021/03/28 16:42:57;;;;;;;4.60;0.70;;;20.60;57.70;;;;;;5063525;28;20516;-42
2021/03/28 16:45:42;;;;;;;0.55;0.52;;;20.70;57.40;;;;;;5070408;28;20502;-43
2021/03/28 16:48:22;;;;;;;2.95;0.70;;;20.60;57.70;;;;;;5050574;28;20032;-43
2021/03/28 16:50:58;;;;;;;3.53;0.70;;;20.50;57.10;;;;;;5053407;28;20044;-43
2021/03/28 16:53:34;;;;;;;2.80;0.65;;;20.50;57.60;;;;;;5090971;28;20029;-43
2021/03/28 16:56:00;;;;;;;2.63;0.90;;;20.60;57.60;;;;;;5068436;28;20229;-43
2021/03/28 16:58:38;;;;;;;3.28;0.90;;;20.50;57.40;;;;;;5092006;28;20512;-43
2021/03/28 17:01:19;;;;;;;2.42;0.80;;;20.50;57.30;;;;;;5065349;28;20036;-43
2021/03/28 17:04:03;;;;;;;1.33;0.75;;;20.50;57.40;;;;;;4717384;27;10000479;-43
2021/03/28 17:06:29;;;;;;;1.88;1.05;;;20.60;57.00;;;;;;5066177;28;20795;-42
2021/03/28 17:09:09;;;;;;;1.75;0.93;;;20.60;57.00;;;;;;5086674;28;20028;-43
2021/03/28 17:12:10;;;;;;;2.00;0.75;;;20.60;56.90;;;;;;5078956;28;20024;-43
2021/03/28 17:14:51;;;;;;;1.80;0.68;;;20.60;57.90;;;;;;5093941;28;20112;-43
2021/03/28 17:17:16;;;;;;;1.65;0.50;;;20.60;57.20;;;;;;5060579;28;20052;-43
2021/03/28 17:20:09;;;;;;;1.15;0.68;;;20.60;57.40;;;;;;5063420;28;20032;-43